D/T METAR WX W/SPE G/SPE TEMP DEWP FEEL
31/01/23 12:50 EGOM 311250Z AUTO 27023KT 9999 // OVC014/// 04/02 Q1016 26.5mph 4°C 2°C 2.4°C
31/01/23 12:20 EGOM 311220Z AUTO 27022KT 9999 -RA OVC017/// 04/02 Q1016 -RA 25.3mph 4°C 2°C 2.4°C
31/01/23 06:50 EGOM 310650Z AUTO 26018KT 9999 // SCT024/// BKN035/// 05/04 Q1013 20.7mph 5°C 4°C 4.0°C
31/01/23 05:50 EGOM 310550Z AUTO 26020KT 7000 FG OVC001/// 06/06 Q1013 FG 23.0mph 6°C 6°C 5.6°C
31/01/23 04:20 EGOM 310420Z AUTO 25022KT 3500 -DZ OVC001/// 06/06 Q1014 -DZ 25.3mph 6°C 6°C 5.6°C
30/01/23 21:50 EGOM 302150Z AUTO 24016KT 4700 -RA OVC002/// 04/04 Q1018 -RA 18.4mph 4°C 4°C 3.0°C
30/01/23 12:50 EGOM 301250Z 28018KT 9999 FEW020 06/03 Q1020 RMK BLU 20.7mph 6°C 3°C 4.7°C
30/01/23 11:50 EGOM 301150Z 26015KT 9999 BKN015 06/04 Q1021 RMK WHT 17.3mph 6°C 4°C 5.0°C
30/01/23 07:50 EGOM 300750Z AUTO 27017KT 9999 BKN024/// 03/01 Q1017 19.6mph 3°C 1°C 1.1°C
30/01/23 06:20 EGOM 300620Z AUTO 27019KT 9999 OVC021/// 04/01 Q1016 21.9mph 4°C 1°C 2.1°C
16/12/22 02:20 EGOM 160220Z AUTO 27009KT 9999 SCT120/// M06/M07 Q1013 10.4mph -6°C -7°C -9.5°C
15/12/22 20:50 EGOM 152050Z AUTO 23006KT 9999 NCD M05/M06 Q1013 6.9mph -5°C -6°C -8.4°C
15/12/22 20:20 EGOM 152020Z AUTO 25007KT 9999 NCD M05/M06 Q1013 8.1mph -5°C -6°C -8.4°C
15/12/22 19:50 EGOM 151950Z AUTO 27008KT 9999 NCD M05/M06 Q1013 9.2mph -5°C -6°C -8.4°C
15/12/22 19:20 EGOM 151920Z AUTO 28007KT 9999 NCD M05/M06 Q1013 8.1mph -5°C -6°C -8.4°C
15/12/22 18:50 EGOM 151850Z AUTO 29007KT 9999 NCD M05/M07 Q1013 8.1mph -5°C -7°C -8.5°C
15/12/22 16:20 EGOM 151620Z AUTO 26002KT 9999 NCD M05/M06 Q1012 2.3mph -5°C -6°C -8.4°C
15/12/22 15:50 EGOM 151550Z AUTO 28008KT 9999 NCD M04/M05 Q1012 9.2mph -4°C -5°C -7.2°C
15/12/22 15:20 EGOM 151520Z AUTO 29004KT 9999 NCD M03/M05 Q1011 4.6mph -3°C -5°C -6.2°C
15/12/22 14:20 EGOM 151420Z AUTO 25007KT 9999 NCD M01/M03 Q1011 8.1mph -1°C -3°C -3.8°C
15/12/22 13:50 EGOM 151350Z AUTO 23004KT 9999 NCD M01/M03 Q1011 4.6mph -1°C -3°C -3.8°C
15/12/22 12:20 EGOM 151220Z AUTO 01009KT 9999 NCD 01/M02 Q1011 10.4mph 1°C -2°C -1.6°C
15/12/22 11:20 EGOM 151120Z AUTO 30004KT 9999 NCD M02/M03 Q1011 4.6mph -2°C -3°C -4.8°C
15/12/22 10:50 EGOM 151050Z 28004KT 9999 SKC M03/M04 Q1011 RMK BLU 4.6mph -3°C -4°C -6.0°C
15/12/22 10:20 EGOM 151020Z AUTO 17002KT 9999 NCD M03/M04 Q1011 2.3mph -3°C -4°C -6.0°C
15/12/22 09:20 EGOM 150920Z AUTO 17004KT 9999 NCD M06/M08 Q1010 4.6mph -6°C -8°C -9.7°C
15/12/22 06:20 EGOM 150620Z AUTO 26007KT 9999 NCD M08/M09 Q1009 8.1mph -8°C -9°C -11.8°C
15/12/22 05:50 EGOM 150550Z AUTO 29010KT 9999 NCD M07/M08 Q1008 11.5mph -7°C -8°C -10.7°C
15/12/22 05:20 EGOM 150520Z AUTO 29009KT 9999 NCD M07/M08 Q1008 10.4mph -7°C -8°C -10.7°C
15/12/22 04:50 EGOM 150450Z AUTO 28010KT 9999 NCD M07/M08 Q1008 11.5mph -7°C -8°C -10.7°C
15/12/22 04:20 EGOM 150420Z AUTO 26007KT 9999 NCD M08/M09 Q1008 8.1mph -8°C -9°C -11.8°C
15/12/22 03:50 EGOM 150350Z AUTO 25005KT 9999 NCD M08/M09 Q1008 5.8mph -8°C -9°C -11.8°C
15/12/22 03:20 EGOM 150320Z AUTO 26009KT 9999 NCD M07/M08 Q1008 10.4mph -7°C -8°C -10.7°C
14/12/22 20:50 EGOM 142050Z AUTO 26006KT 9999 NCD M08/M09 Q1008 6.9mph -8°C -9°C -11.8°C
14/12/22 20:20 EGOM 142020Z AUTO 26009KT 9999 NCD M08/M09 Q1008 10.4mph -8°C -9°C -11.8°C
14/12/22 19:50 EGOM 141950Z AUTO 27008KT 9999 NCD M08/M09 Q1008 9.2mph -8°C -9°C -11.8°C
14/12/22 19:20 EGOM 141920Z AUTO 26006KT 9999 NCD M07/M08 Q1008 6.9mph -7°C -8°C -10.7°C
14/12/22 18:50 EGOM 141850Z AUTO 25008KT 9999 NCD M07/M08 Q1008 9.2mph -7°C -8°C -10.7°C
14/12/22 18:20 EGOM 141820Z AUTO 26005KT 9999 NCD M08/M09 Q1008 5.8mph -8°C -9°C -11.8°C
14/12/22 17:20 EGOM 141720Z AUTO 26005KT 9999 NCD M06/M07 Q1008 5.8mph -6°C -7°C -9.5°C
14/12/22 14:50 EGOM 141450Z AUTO 30006KT 9999 NCD M03/M06 Q1007 6.9mph -3°C -6°C -6.4°C
14/12/22 14:20 EGOM 141420Z AUTO 30007KT 9999 NCD M03/M05 Q1007 8.1mph -3°C -5°C -6.2°C
14/12/22 13:50 EGOM 141350Z AUTO 30006KT 9999 NCD M03/M05 Q1007 6.9mph -3°C -5°C -6.2°C
14/12/22 12:20 EGOM 141220Z AUTO 34010KT 9999 NCD M02/M05 Q1007 11.5mph -2°C -5°C -5.2°C
14/12/22 11:50 EGOM 141150Z 35014KT 9999 SKC M02/M05 Q1007 RMK BLU 16.1mph -2°C -5°C -5.2°C
14/12/22 11:20 EGOM 141120Z AUTO 35013KT 9999 NCD M03/M05 Q1007 15.0mph -3°C -5°C -6.2°C
14/12/22 10:20 EGOM 141020Z AUTO 35013KT 9999 NCD M03/M06 Q1007 15.0mph -3°C -6°C -6.4°C
14/12/22 09:50 EGOM 140950Z 31009KT 9999 FEW003 SCT030 M04/M06 Q1007 RMK BLU 10.4mph -4°C -6°C -7.4°C
14/12/22 08:50 EGOM 140850Z AUTO 34010KT 9999 NCD M04/M06 Q1007 11.5mph -4°C -6°C -7.4°C
14/12/22 08:20 EGOM 140820Z AUTO 33005KT 9999 NCD M04/M06 Q1006 5.8mph -4°C -6°C -7.4°C
14/12/22 07:20 EGOM 140720Z AUTO 01007KT 9999 NCD M04/M06 Q1006 8.1mph -4°C -6°C -7.4°C
14/12/22 00:20 EGOM 140020Z AUTO 36008KT 9999 FEW030/// M04/M04 Q1006 9.2mph -4°C -4°C -7.0°C
13/12/22 21:50 EGOM 132150Z AUTO 03002KT 9999 // OVC021/// M05/M05 Q1006 2.3mph -5°C -5°C -8.2°C
13/12/22 20:50 EGOM 132050Z AUTO 01001KT 9999 -RASN BKN020/// BKN030/// M05/M05 Q1006 -RA -SN 1.2mph -5°C -5°C -8.2°C
13/12/22 20:20 EGOM 132020Z AUTO 32001KT 9999 SCT009/// BKN025/// M05/M06 Q1006 1.2mph -5°C -6°C -8.4°C
13/12/22 19:50 EGOM 131950Z AUTO 15003KT 9999 OVC009/// M05/M05 Q1006 3.5mph -5°C -5°C -8.2°C
13/12/22 19:20 EGOM 131920Z AUTO 01002KT 9999 OVC011/// M05/M06 Q1006 2.3mph -5°C -6°C -8.4°C
13/12/22 18:20 EGOM 131820Z AUTO 01002KT 9999 FEW017/// M07/M08 Q1006 2.3mph -7°C -8°C -10.7°C
13/12/22 16:20 EGOM 131620Z AUTO 35003KT 9999 NCD M05/M06 Q1006 3.5mph -5°C -6°C -8.4°C
13/12/22 15:50 EGOM 131550Z AUTO 00000KT 9999 NCD M05/M06 Q1006 -5°C -6°C -8.4°C
13/12/22 14:50 EGOM 131450Z AUTO 29006KT 9999 BR NCD M03/M04 Q1006 BR 6.9mph -3°C -4°C -6.0°C
13/12/22 14:20 EGOM 131420Z AUTO 27004KT 8000 BR NCD M03/M04 Q1006 BR 4.6mph -3°C -4°C -6.0°C
13/12/22 12:20 EGOM 131220Z AUTO 00000KT 9999 NCD M03/M03 Q1006 -3°C -3°C -5.8°C
13/12/22 11:50 EGOM 131150Z AUTO 00000KT 9999 NCD M03/M03 Q1006 -3°C -3°C -5.8°C
13/12/22 11:20 EGOM 131120Z AUTO 00000KT 9999 NCD M03/M03 Q1007 -3°C -3°C -5.8°C
13/12/22 10:50 EGOM 131050Z AUTO 00000KT 8000 BR NCD M04/M04 Q1007 BR -4°C -4°C -7.0°C
13/12/22 10:20 EGOM 131020Z AUTO 00000KT 8000 BR NCD M05/M05 Q1007 BR -5°C -5°C -8.2°C
13/12/22 09:50 EGOM 130950Z AUTO 00000KT 7000 BR NCD M06/M07 Q1007 BR -6°C -7°C -9.5°C
13/12/22 09:20 EGOM 130920Z AUTO 00000KT 6000 BR NCD M06/M07 Q1007 BR -6°C -7°C -9.5°C
13/12/22 08:50 EGOM 130850Z AUTO 00000KT 4900 BR NCD M06/M07 Q1007 BR -6°C -7°C -9.5°C
13/12/22 08:20 EGOM 130820Z AUTO 00000KT 6000 BR NCD M07/M08 Q1007 BR -7°C -8°C -10.7°C
13/12/22 07:50 EGOM 130750Z AUTO 00000KT 6000 BR NCD M07/M07 Q1007 BR -7°C -7°C -10.5°C
13/12/22 07:20 EGOM 130720Z AUTO 00000KT 7000 BR NCD M07/M08 Q1007 BR -7°C -8°C -10.7°C
13/12/22 03:20 EGOM 130320Z AUTO 00000KT 9999 NCD M06/M07 Q1008 -6°C -7°C -9.5°C
13/12/22 01:50 EGOM 130150Z AUTO 00000KT 9999 NCD M06/M07 Q1008 -6°C -7°C -9.5°C
13/12/22 01:20 EGOM 130120Z AUTO 00000KT 9999 NCD M06/M06 Q1008 -6°C -6°C -9.4°C
13/12/22 00:50 EGOM 130050Z AUTO 00000KT 9999 NCD M06/M07 Q1008 -6°C -7°C -9.5°C
13/12/22 00:20 EGOM 130020Z AUTO 00000KT 9999 SCT160/// M07/M08 Q1008 -7°C -8°C -10.7°C
12/12/22 23:50 EGOM 122350Z AUTO 00000KT 9999 NCD M06/M06 Q1008 -6°C -6°C -9.4°C
12/12/22 22:20 EGOM 122220Z AUTO 00000KT 9999 NCD M06/M07 Q1008 -6°C -7°C -9.5°C
12/12/22 21:50 EGOM 122150Z AUTO 00000KT 9999 NCD M06/M07 Q1008 -6°C -7°C -9.5°C
12/12/22 21:20 EGOM 122120Z AUTO 00000KT 9999 REFG NCD M07/M08 Q1008 -7°C -8°C -10.7°C
12/12/22 20:50 EGOM 122050Z AUTO 00000KT 9999 REFG FEW001/// M06/M06 Q1008 -6°C -6°C -9.4°C
12/12/22 20:20 EGOM 122020Z AUTO 00000KT 0900 FG OVC001/// M05/M06 Q1008 FG -5°C -6°C -8.4°C
12/12/22 19:50 EGOM 121950Z AUTO 00000KT 0300 FG OVC001/// M05/M05 Q1008 FG -5°C -5°C -8.2°C
12/12/22 19:20 EGOM 121920Z AUTO 00000KT 9999 FEW001/// M04/M05 Q1008 -4°C -5°C -7.2°C
12/12/22 18:50 EGOM 121850Z AUTO 00000KT 9999 NCD M04/M04 Q1008 -4°C -4°C -7.0°C
12/12/22 18:20 EGOM 121820Z AUTO 00000KT 9999 NCD M04/M05 Q1008 -4°C -5°C -7.2°C
12/12/22 14:50 EGOM 121450Z AUTO 00000KT 9999 NCD M01/M01 Q1007 -1°C -1°C -3.4°C
12/12/22 14:20 EGOM 121420Z AUTO 00000KT 9999 NCD M01/M01 Q1007 -1°C -1°C -3.4°C
12/12/22 13:50 EGOM 121350Z AUTO 00000KT 9999 NCD M01/M01 Q1007 -1°C -1°C -3.4°C
12/12/22 13:20 EGOM 121320Z AUTO 00000KT 9999 FEW003/// M01/M01 Q1007 -1°C -1°C -3.4°C
12/12/22 12:50 EGOM 121250Z 00000KT 9999 SKC M01/M01 Q1007 RMK BLU -1°C -1°C -3.4°C
12/12/22 12:20 EGOM 121220Z AUTO 00000KT 9999 NCD M01/M02 Q1007 -1°C -2°C -3.6°C
12/12/22 11:50 EGOM 121150Z 00000KT 9999 SKC M02/M02 Q1007 RMK BLU -2°C -2°C -4.6°C
12/12/22 11:20 EGOM 121120Z AUTO 00000KT 9999 FEW001/// M02/M03 Q1007 -2°C -3°C -4.8°C